Time;durP1;ratioP1;P1;durP2;ratioP2;P2;SDS_P1;SDS_P2;PMS_P1;PMS_P2;Temp;Humidity;BMP_temperature;BMP_pressure;BME280_temperature;BME280_humidity;BME280_pressure;Samples;Min_cycle;Max_cycle;Signal;HPM_P1;HPM_P2
2022/07/13 00:00:36;;;;;;;;;4.00;4.00;;;;;28.02;26.28;101881.56;5079614;27;61468;-68
2022/07/13 00:03:01;;;;;;;;;5.00;5.00;;;;;27.95;26.68;101877.72;5079672;27;61435;-69
2022/07/13 00:05:27;;;;;;;;;4.67;4.67;;;;;27.89;26.13;101882.00;5080101;27;46022;-68
2022/07/13 00:07:52;;;;;;;;;6.00;6.00;;;;;27.84;26.22;101884.38;5079859;28;45288;-68
2022/07/13 00:10:17;;;;;;;;;5.00;5.00;;;;;27.80;26.43;101878.38;5080105;27;45301;-68
2022/07/13 00:12:43;;;;;;;;;3.67;3.67;;;;;27.78;26.74;101883.13;5080167;28;45603;-68
2022/07/13 00:15:09;;;;;;;;;5.33;5.00;;;;;27.78;27.14;101879.53;5079985;27;45397;-68
2022/07/13 00:17:34;;;;;;;;;5.00;5.00;;;;;27.74;27.40;101876.28;5079957;27;45446;-68
2022/07/13 00:19:59;;;;;;;;;5.67;4.00;;;;;27.70;26.94;101877.63;5078979;27;69452;-68
2022/07/13 00:22:25;;;;;;;;;4.67;3.00;;;;;27.66;27.14;101882.56;5080080;27;45471;-68
2022/07/13 00:24:50;;;;;;;;;7.00;5.00;;;;;27.65;27.25;101888.19;5079828;27;46034;-68
2022/07/13 00:27:16;;;;;;;;;4.00;4.00;;;;;27.59;26.94;101877.91;5079107;27;65697;-68
2022/07/13 00:29:41;;;;;;;;;9.00;6.67;;;;;27.55;27.48;101883.72;5079965;27;45385;-68
2022/07/13 00:32:06;;;;;;;;;6.00;6.00;;;;;27.52;27.49;101884.06;5078812;27;68582;-68
2022/07/13 00:34:32;;;;;;;;;7.33;6.67;;;;;27.49;27.74;101878.06;5078813;27;73712;-68
2022/07/13 00:36:58;;;;;;;;;5.33;4.33;;;;;27.46;27.57;101870.19;5079569;27;45780;-68
2022/07/13 00:39:23;;;;;;;;;6.00;6.00;;;;;27.42;28.10;101861.47;5080471;27;45497;-68
2022/07/13 00:41:49;;;;;;;;;7.00;6.00;;;;;27.39;28.00;101862.63;5083113;27;51428;-68
2022/07/13 00:44:15;;;;;;;;;7.67;6.00;;;;;27.36;27.77;101864.81;5082556;27;62617;-68
2022/07/13 00:46:43;;;;;;;;;5.00;5.00;;;;;27.34;28.07;101864.09;5083081;27;45416;-68
2022/07/13 00:49:10;;;;;;;;;4.67;4.00;;;;;27.30;27.87;101852.66;5083282;27;45282;-68
2022/07/13 00:51:37;;;;;;;;;7.00;6.33;;;;;27.27;27.96;101865.78;5082971;27;45425;-68
2022/07/13 00:54:03;;;;;;;;;7.00;6.00;;;;;27.24;27.91;101864.22;5082810;27;45421;-68
2022/07/13 00:56:28;;;;;;;;;5.00;5.00;;;;;27.19;28.55;101859.22;5083082;28;45432;-68
2022/07/13 00:58:54;;;;;;;;;6.00;5.00;;;;;27.15;28.23;101857.84;5082687;27;47941;-68
2022/07/13 01:01:19;;;;;;;;;5.00;5.00;;;;;27.12;28.82;101862.75;5082237;27;58043;-68
2022/07/13 01:03:44;;;;;;;;;5.00;3.67;;;;;27.08;28.41;101852.19;5082689;27;46090;-68
2022/07/13 01:06:10;;;;;;;;;9.00;7.33;;;;;27.05;28.73;101857.09;5082246;27;61919;-68
2022/07/13 01:08:35;;;;;;;;;5.00;5.00;;;;;27.01;28.61;101862.03;5082821;27;45272;-68
2022/07/13 01:11:01;;;;;;;;;7.00;6.00;;;;;26.99;29.59;101849.56;5082063;27;63601;-68
2022/07/13 01:13:27;;;;;;;;;7.33;7.00;;;;;26.97;29.00;101857.03;5081833;28;67944;-68
2022/07/13 01:15:52;;;;;;;;;6.00;5.33;;;;;26.94;29.36;101858.22;5082508;27;45419;-68
2022/07/13 01:18:18;;;;;;;;;6.00;6.00;;;;;26.93;29.71;101861.13;5082685;27;45405;-68
2022/07/13 01:20:44;;;;;;;;;6.33;6.33;;;;;26.87;29.33;101857.13;5082745;27;45303;-68
2022/07/13 01:23:10;;;;;;;;;4.00;4.00;;;;;26.86;28.88;101863.63;5082452;27;45470;-68
2022/07/13 01:25:36;;;;;;;;;4.00;4.00;;;;;26.86;29.96;101858.16;5082304;27;45333;-68
2022/07/13 01:28:01;;;;;;;;;6.00;5.33;;;;;26.84;29.62;101858.34;5081328;28;68835;-68
2022/07/13 01:30:27;;;;;;;;;7.00;7.00;;;;;26.82;29.62;101859.50;5081689;27;60370;-68
2022/07/13 01:32:52;;;;;;;;;8.00;4.67;;;;;26.81;30.32;101858.63;5081454;27;72649;-68
2022/07/13 01:35:21;;;;;;;;;5.00;5.00;;;;;26.78;30.52;101855.34;5082726;27;45496;-68
2022/07/13 01:37:47;;;;;;;;;5.33;5.33;;;;;26.76;30.20;101857.41;5082403;27;45430;-68
2022/07/13 01:40:13;;;;;;;;;6.33;4.67;;;;;26.71;30.33;101858.72;5081298;28;45465;-68
2022/07/13 01:42:49;;;;;;;;;5.00;5.00;;;;;26.68;28.99;101842.63;5082274;27;47170;-68
2022/07/13 01:45:16;;;;;;;;;6.00;5.33;;;;;26.67;29.77;101846.38;5082112;27;45467;-68
2022/07/13 01:47:43;;;;;;;;;4.00;4.00;;;;;26.65;30.01;101842.97;5080511;27;45319;-67
2022/07/13 01:50:10;;;;;;;;;5.67;4.00;;;;;26.64;30.16;101849.44;5082245;28;45369;-67
2022/07/13 01:52:36;;;;;;;;;5.00;5.00;;;;;26.63;29.99;101844.13;5081917;27;46542;-66
2022/07/13 01:55:05;;;;;;;;;5.00;5.00;;;;;26.60;30.50;101839.00;5081992;27;45365;-67
2022/07/13 01:57:31;;;;;;;;;5.33;4.33;;;;;26.59;29.56;101838.13;5081956;27;45350;-67
2022/07/13 02:00:20;;;;;;;;;6.33;5.67;;;;;26.57;30.45;101840.19;5082035;27;45512;-68
2022/07/13 02:02:47;;;;;;;;;5.00;5.00;;;;;26.56;29.67;101839.28;5081573;27;46352;-67
2022/07/13 02:05:12;;;;;;;;;5.00;5.00;;;;;26.57;30.18;101834.72;5081833;27;45336;-68
2022/07/13 02:07:39;;;;;;;;;5.67;4.67;;;;;26.58;29.83;101831.81;5082113;27;45396;-67
2022/07/13 02:10:05;;;;;;;;;4.33;3.00;;;;;26.58;30.23;101834.56;5082106;27;45421;-68
2022/07/13 02:12:31;;;;;;;;;6.00;5.00;;;;;26.57;29.68;101829.25;5081725;27;45709;-67
2022/07/13 02:14:57;;;;;;;;;6.67;5.00;;;;;26.58;30.06;101825.50;5081868;27;45418;-68
2022/07/13 02:17:23;;;;;;;;;6.33;6.33;;;;;26.59;30.14;101816.31;5081691;27;45671;-68
2022/07/13 02:19:48;;;;;;;;;3.33;3.33;;;;;26.62;29.93;101817.88;5081994;27;45494;-68
2022/07/13 02:22:13;;;;;;;;;6.00;5.00;;;;;26.63;30.36;101820.44;5081677;27;48739;-68
2022/07/13 02:24:38;;;;;;;;;6.00;6.00;;;;;26.66;30.05;101827.44;5080630;27;72620;-67
2022/07/13 02:27:04;;;;;;;;;4.00;4.00;;;;;26.69;30.38;101816.22;5079908;27;66252;-67
2022/07/13 02:29:29;;;;;;;;;4.00;3.00;;;;;26.70;29.23;101810.59;5081652;27;45561;-67
2022/07/13 02:31:55;;;;;;;;;3.67;3.67;;;;;26.72;29.03;101819.50;5080522;27;61712;-67
2022/07/13 02:34:21;;;;;;;;;4.00;4.00;;;;;26.74;29.66;101814.75;5080625;27;65207;-67
2022/07/13 02:36:47;;;;;;;;;3.67;3.67;;;;;26.74;28.69;101816.63;5081440;27;45459;-67
2022/07/13 02:39:13;;;;;;;;;4.00;3.67;;;;;26.77;29.27;101804.56;5081438;27;45265;-67
2022/07/13 02:41:38;;;;;;;;;3.67;3.67;;;;;26.78;29.06;101814.44;5079007;28;70441;-67
2022/07/13 02:44:03;;;;;;;;;3.00;3.00;;;;;26.77;29.13;101805.41;5081097;27;45292;-67
2022/07/13 02:46:28;;;;;;;;;4.00;4.00;;;;;26.77;29.27;101805.41;5080227;27;67265;-68
2022/07/13 02:48:54;;;;;;;;;2.67;2.67;;;;;26.78;29.23;101811.69;5080550;27;65968;-67
2022/07/13 02:51:19;;;;;;;;;3.67;3.67;;;;;26.76;29.27;101803.69;5080152;27;71701;-67
2022/07/13 02:53:45;;;;;;;;;6.67;4.33;;;;;26.76;28.64;101806.41;5080773;27;53860;-68
2022/07/13 02:56:10;;;;;;;;;2.67;2.67;;;;;26.75;28.68;101804.69;5081154;27;45457;-68
2022/07/13 02:58:35;;;;;;;;;3.00;3.00;;;;;26.75;28.71;101812.88;5080375;27;61375;-68
2022/07/13 03:01:01;;;;;;;;;3.00;3.00;;;;;26.74;29.39;101811.19;5080783;27;46216;-67
2022/07/13 03:03:26;;;;;;;;;3.33;3.33;;;;;26.74;28.79;101816.63;5079446;27;69899;-68
2022/07/13 03:05:51;;;;;;;;;3.67;3.67;;;;;26.72;28.87;101814.03;5080858;27;49743;-68
2022/07/13 03:08:17;;;;;;;;;4.00;4.00;;;;;26.71;28.74;101806.88;5081064;27;45331;-68
2022/07/13 03:10:42;;;;;;;;;5.00;4.00;;;;;26.69;28.79;101806.16;5079991;27;73094;-68
2022/07/13 03:13:07;;;;;;;;;4.00;2.00;;;;;26.68;28.87;101812.63;5080974;27;45452;-68
2022/07/13 03:15:33;;;;;;;;;3.67;3.67;;;;;26.66;29.70;101808.34;5080482;27;53010;-68
2022/07/13 03:17:58;;;;;;;;;6.00;4.00;;;;;26.64;29.38;101810.38;5080179;27;65504;-68
2022/07/13 03:20:23;;;;;;;;;4.00;4.00;;;;;26.61;29.73;101810.69;5080197;27;65259;-68
2022/07/13 03:22:49;;;;;;;;;4.00;4.00;;;;;26.58;29.65;101807.28;5080436;27;45312;-68
2022/07/13 03:25:15;;;;;;;;;4.00;4.00;;;;;26.56;29.59;101809.28;5080896;27;45336;-68
2022/07/13 03:27:40;;;;;;;;;3.00;3.00;;;;;26.55;29.71;101807.56;5080366;28;50254;-68
2022/07/13 03:30:06;;;;;;;;;5.33;5.33;;;;;26.55;29.84;101813.03;5080461;27;45491;-68
2022/07/13 03:32:31;;;;;;;;;3.67;3.33;;;;;26.57;29.52;101807.44;5080538;27;45359;-68
2022/07/13 03:34:57;;;;;;;;;5.00;5.00;;;;;26.57;29.28;101811.00;5080285;27;58631;-68
2022/07/13 03:37:23;;;;;;;;;4.00;4.00;;;;;26.57;29.47;101813.75;5079604;28;65275;-68
2022/07/13 03:39:48;;;;;;;;;6.00;4.00;;;;;26.56;30.26;101809.28;5079538;27;75992;-68
2022/07/13 03:42:13;;;;;;;;;3.00;3.00;;;;;26.56;29.60;101805.72;5080691;27;45344;-68
2022/07/13 03:44:39;;;;;;;;;6.00;4.67;;;;;26.55;30.35;101813.03;5078962;28;55733;-68
2022/07/13 03:47:04;;;;;;;;;3.00;3.00;;;;;26.55;30.37;101812.19;5080342;27;45472;-68
2022/07/13 03:49:29;;;;;;;;;3.67;2.67;;;;;26.52;29.85;101813.34;5079332;27;71132;-68
2022/07/13 03:51:55;;;;;;;;;5.00;3.67;;;;;26.51;29.93;101819.81;5080063;27;49932;-68
2022/07/13 03:54:20;;;;;;;;;5.33;4.00;;;;;26.49;29.69;101824.59;5079492;27;68349;-68
2022/07/13 03:56:46;;;;;;;;;6.67;5.33;;;;;26.50;29.62;101820.81;5079962;28;45647;-67
2022/07/13 03:59:11;;;;;;;;;6.33;3.67;;;;;26.48;29.83;101817.41;5080194;27;46105;-68
2022/07/13 04:01:37;;;;;;;;;4.00;3.67;;;;;26.49;30.13;101812.81;5080112;27;45330;-68
2022/07/13 04:04:03;;;;;;;;;4.00;4.00;;;;;26.49;30.83;101823.72;5079414;27;67967;-68
2022/07/13 04:06:29;;;;;;;;;6.00;4.67;;;;;26.48;30.64;101822.00;5080198;28;45312;-67
2022/07/13 04:08:54;;;;;;;;;5.00;5.00;;;;;26.47;30.50;101818.44;5080013;27;46349;-68
2022/07/13 04:11:19;;;;;;;;;6.00;6.00;;;;;26.45;30.63;101817.72;5078891;27;71011;-68
2022/07/13 04:13:45;;;;;;;;;6.00;5.00;;;;;26.42;30.30;101823.50;5079744;27;49797;-68
2022/07/13 04:16:10;;;;;;;;;6.00;6.00;;;;;26.43;31.00;101817.03;5082348;27;64502;-67
2022/07/13 04:18:36;;;;;;;;;5.67;5.00;;;;;26.42;31.38;101816.16;5083399;27;47064;-68
2022/07/13 04:21:01;;;;;;;;;4.00;4.00;;;;;26.39;31.32;101819.22;5083554;27;45473;-67
2022/07/13 04:23:28;;;;;;;;;5.33;5.33;;;;;26.39;30.87;101821.09;5083720;27;45345;-68
2022/07/13 04:25:54;;;;;;;;;8.67;8.00;;;;;26.38;31.51;101814.75;5083567;27;45406;-68
2022/07/13 04:28:19;;;;;;;;;4.00;4.00;;;;;26.37;31.67;101809.47;5082437;27;70528;-68
2022/07/13 04:30:44;;;;;;;;;7.67;7.33;;;;;26.38;31.31;101812.03;5082473;27;63055;-68
2022/07/13 04:33:10;;;;;;;;;6.33;6.00;;;;;26.38;31.34;101812.03;5082544;27;68045;-67
2022/07/13 04:35:35;;;;;;;;;8.00;8.00;;;;;26.38;31.85;101806.59;5082613;27;64900;-68
2022/07/13 04:38:00;;;;;;;;;6.00;6.00;;;;;26.39;32.35;101807.47;5082440;27;69669;-68
2022/07/13 04:40:26;;;;;;;;;8.33;8.00;;;;;26.39;31.86;101807.47;5082732;27;62715;-67
2022/07/13 04:42:51;;;;;;;;;9.67;9.67;;;;;26.37;32.53;101807.63;5083539;27;45367;-67
2022/07/13 04:45:18;;;;;;;;;10.67;9.67;;;;;26.39;32.71;101810.19;5082256;27;68493;-68
2022/07/13 04:47:44;;;;;;;;;8.67;8.00;;;;;26.39;32.72;101808.31;5083207;27;47006;-68
2022/07/13 04:50:09;;;;;;;;;13.00;11.00;;;;;26.41;32.59;101805.41;5083266;27;45362;-68
2022/07/13 04:52:35;;;;;;;;;13.67;12.00;;;;;26.43;32.44;101803.41;5083173;27;45488;-68
2022/07/13 04:55:00;;;;;;;;;11.00;9.00;;;;;26.43;32.58;101811.56;5082179;27;66564;-68
2022/07/13 04:57:26;;;;;;;;;10.33;9.33;;;;;26.43;32.92;101806.13;5082890;27;45350;-68
2022/07/13 04:59:51;;;;;;;;;10.00;7.00;;;;;26.45;32.56;101808.69;5082986;27;45442;-68
2022/07/13 05:02:16;;;;;;;;;11.67;10.67;;;;;26.47;33.22;101817.59;5081259;27;58718;-68
2022/07/13 05:04:42;;;;;;;;;12.00;12.00;;;;;26.48;32.96;101805.63;5083036;27;45617;-68
2022/07/13 05:07:07;;;;;;;;;16.00;10.67;;;;;26.48;32.55;101805.63;5081485;27;71959;-68
2022/07/13 05:09:32;;;;;;;;;12.33;11.67;;;;;26.50;32.62;101809.06;5081463;28;45610;-68
2022/07/13 05:11:58;;;;;;;;;6.33;6.33;;;;;26.49;33.51;101802.78;5082395;27;46014;-68
2022/07/13 05:14:23;;;;;;;;;14.33;11.00;;;;;26.49;33.59;101808.22;5082928;28;45486;-68
2022/07/13 05:16:48;;;;;;;;;20.67;11.33;;;;;26.50;33.81;101809.06;5081954;27;60698;-68
2022/07/13 05:19:14;;;;;;;;;10.33;10.33;;;;;26.51;33.29;101808.91;5082065;27;62985;-68
2022/07/13 05:21:39;;;;;;;;;10.33;9.00;;;;;26.53;33.72;101803.28;5082195;27;45417;-68
2022/07/13 05:24:05;;;;;;;;;9.33;9.00;;;;;26.56;33.67;101803.00;5081828;27;65985;-68
2022/07/13 05:26:30;;;;;;;;;10.67;9.00;;;;;26.58;33.45;101800.94;5081834;27;45378;-68
2022/07/13 05:28:56;;;;;;;;;10.33;10.33;;;;;26.64;33.01;101804.94;5082402;27;45497;-68
2022/07/13 05:31:21;;;;;;;;;11.67;11.00;;;;;26.67;33.71;101807.34;5081545;28;45469;-68
2022/07/13 05:33:46;;;;;;;;;8.33;8.00;;;;;26.68;33.28;101807.16;5081711;27;64853;-68
2022/07/13 05:36:12;;;;;;;;;9.00;7.00;;;;;26.72;32.82;101813.19;5081384;27;68818;-68
2022/07/13 05:38:37;;;;;;;;;7.00;6.00;;;;;26.76;32.25;101817.31;5082368;27;45550;-68
2022/07/13 05:41:03;;;;;;;;;6.67;5.33;;;;;26.80;31.83;101815.97;5081601;27;63181;-68
2022/07/13 05:43:28;;;;;;;;;8.67;5.33;;;;;26.84;31.52;101817.41;5081581;27;65084;-68
2022/07/13 05:45:53;;;;;;;;;3.00;1.67;;;;;26.85;31.25;101819.09;5081852;27;46197;-68
2022/07/13 05:48:18;;;;;;;;;4.67;4.67;;;;;26.90;30.92;101815.91;5080923;27;72818;-68
2022/07/13 05:50:44;;;;;;;;;4.00;4.00;;;;;26.94;31.19;101819.16;5081542;27;59965;-68
2022/07/13 05:53:10;;;;;;;;;4.67;4.67;;;;;26.98;30.55;101826.84;5081240;27;45420;-66
2022/07/13 05:55:36;;;;;;;;;4.33;4.33;;;;;27.01;30.57;101829.28;5081499;27;46382;-69
2022/07/13 05:58:01;;;;;;;;;4.67;4.67;;;;;27.05;30.48;101827.06;5080836;28;45434;-68
2022/07/13 06:00:27;;;;;;;;;3.00;3.00;;;;;27.12;30.62;101832.72;5082097;27;45389;-68
2022/07/13 06:02:53;;;;;;;;;3.67;3.67;;;;;27.18;30.53;101837.56;5082011;27;45292;-68
2022/07/13 06:05:19;;;;;;;;;3.67;2.67;;;;;27.24;30.32;101834.19;5081117;27;46319;-68
2022/07/13 06:07:45;;;;;;;;;4.00;4.00;;;;;27.34;29.89;101839.50;5081229;27;45618;-68
2022/07/13 06:10:10;;;;;;;;;3.67;2.33;;;;;27.38;30.40;101838.22;5081132;27;45496;-68
2022/07/13 06:12:35;;;;;;;;;4.33;3.00;;;;;27.43;29.95;101835.88;5081350;27;45309;-68
2022/07/13 06:15:01;;;;;;;;;3.67;2.00;;;;;27.47;29.85;101839.97;5080455;27;67465;-68
2022/07/13 06:17:26;;;;;;;;;4.00;4.00;;;;;27.50;29.62;101836.06;5080434;27;73611;-68
2022/07/13 06:19:52;;;;;;;;;2.00;2.00;;;;;27.53;29.17;101828.41;5080126;28;45409;-68
2022/07/13 06:22:17;;;;;;;;;5.00;5.00;;;;;27.60;29.62;101827.72;5081709;27;45474;-68
2022/07/13 06:24:43;;;;;;;;;3.67;3.00;;;;;27.65;29.60;101826.22;5080850;27;63595;-68
2022/07/13 06:27:09;;;;;;;;;4.33;3.67;;;;;27.70;29.72;101833.91;5081420;27;45389;-68
2022/07/13 06:29:34;;;;;;;;;3.00;3.00;;;;;27.75;29.77;101831.53;5081334;27;45409;-69
2022/07/13 06:31:59;;;;;;;;;4.00;3.67;;;;;27.82;28.96;101823.53;5081287;27;45406;-68
2022/07/13 06:34:25;;;;;;;;;5.67;4.00;;;;;27.89;29.41;101830.06;5080390;27;70570;-68
2022/07/13 06:36:50;;;;;;;;;5.33;4.00;;;;;27.93;28.91;101830.59;5080256;27;45477;-68
2022/07/13 06:39:16;;;;;;;;;3.67;3.67;;;;;27.96;28.72;101827.50;5080564;27;56793;-69
2022/07/13 06:41:41;;;;;;;;;5.00;4.00;;;;;28.00;28.92;101826.16;5080557;27;64330;-68
2022/07/13 06:44:06;;;;;;;;;6.33;3.33;;;;;28.03;27.70;101818.50;5080200;27;74125;-68
2022/07/13 06:46:32;;;;;;;;;4.33;4.33;;;;;28.10;27.79;101818.69;5080183;27;67899;-69
2022/07/13 06:48:57;;;;;;;;;6.33;3.67;;;;;28.16;27.69;101834.44;5080930;27;49046;-69
2022/07/13 06:51:23;;;;;;;;;4.00;4.00;;;;;28.23;27.91;101835.44;5080353;27;63531;-69
2022/07/13 06:53:48;;;;;;;;;6.00;3.00;;;;;28.30;27.87;101826.56;5080718;27;46155;-69
2022/07/13 06:56:14;;;;;;;;;3.00;3.00;;;;;28.36;27.41;101831.38;5081050;27;45298;-69
2022/07/13 06:58:39;;;;;;;;;5.00;5.00;;;;;28.42;27.35;101829.81;5080911;28;45299;-69
2022/07/13 07:01:05;;;;;;;;;4.33;4.00;;;;;28.44;27.55;101836.84;5080987;27;45533;-68
2022/07/13 07:03:30;;;;;;;;;5.33;5.00;;;;;28.51;27.54;101842.47;5080812;27;46308;-69
2022/07/13 07:05:56;;;;;;;;;6.67;4.33;;;;;28.59;27.69;101842.50;5081064;27;45421;-68
2022/07/13 07:08:21;;;;;;;;;7.00;5.33;;;;;28.70;27.92;101841.31;5080624;28;45362;-69
2022/07/13 07:10:47;;;;;;;;;8.33;5.67;;;;;28.82;27.60;101833.63;5080699;27;45522;-69
2022/07/13 07:13:13;;;;;;;;;7.67;7.67;;;;;28.93;27.44;101841.47;5080685;27;46845;-69
2022/07/13 07:15:39;;;;;;;;;7.33;7.33;;;;;29.02;27.24;101834.97;5080450;28;45338;-69
2022/07/13 07:18:04;;;;;;;;;10.33;5.67;;;;;29.12;27.47;101833.91;5080775;27;45440;-70
2022/07/13 07:20:30;;;;;;;;;6.00;6.00;;;;;29.19;27.75;101835.78;5080794;27;45592;-68
2022/07/13 07:22:55;;;;;;;;;4.67;4.67;;;;;29.28;27.00;101838.50;5080715;27;46296;-67
2022/07/13 07:25:20;;;;;;;;;6.00;4.00;;;;;29.34;26.86;101846.03;5080678;27;45314;-68
2022/07/13 07:27:46;;;;;;;;;6.67;5.00;;;;;29.39;27.16;101849.09;5080697;27;45330;-68
2022/07/13 07:30:11;;;;;;;;;5.00;4.67;;;;;29.44;26.89;101843.06;5079698;27;63384;-69
2022/07/13 07:32:38;;;;;;;;;5.67;5.00;;;;;29.44;26.60;101846.69;5079640;28;71146;-68
2022/07/13 07:35:04;;;;;;;;;5.33;4.67;;;;;29.48;26.65;101845.28;5080409;27;45354;-69
2022/07/13 07:37:30;;;;;;;;;5.00;5.00;;;;;29.57;26.59;101846.13;5080249;27;45375;-68
2022/07/13 07:39:56;;;;;;;;;7.33;5.33;;;;;29.76;26.32;101847.56;5080047;27;54503;-69
2022/07/13 07:42:21;;;;;;;;;3.00;3.00;;;;;29.93;26.00;101845.63;5080355;27;45763;-69
2022/07/13 07:44:46;;;;;;;;;4.67;4.67;;;;;30.06;26.44;101841.44;5080030;27;45329;-69
2022/07/13 07:47:12;;;;;;;;;8.00;6.67;;;;;30.16;26.34;101844.81;5079373;27;61937;-69
2022/07/13 07:49:37;;;;;;;;;4.00;4.00;;;;;30.25;26.04;101838.22;5080289;27;45326;-69
2022/07/13 07:52:03;;;;;;;;;4.00;4.00;;;;;30.31;25.86;101839.38;5079197;27;69023;-71
2022/07/13 07:54:28;;;;;;;;;5.00;5.00;;;;;30.37;26.16;101844.16;5080265;27;45279;-71
2022/07/13 07:56:53;;;;;;;;;4.00;4.00;;;;;30.48;26.40;101840.13;5079027;28;45807;-70
2022/07/13 07:59:19;;;;;;;;;4.00;4.00;;;;;30.65;25.48;101838.09;5080227;27;45389;-69
2022/07/13 08:01:44;;;;;;;;;5.33;5.00;;;;;31.01;25.16;101845.66;5077692;28;61664;-69
2022/07/13 08:04:09;;;;;;;;;5.00;3.00;;;;;31.29;24.96;101834.06;5080079;27;45224;-70
2022/07/13 08:06:35;;;;;;;;;5.67;4.67;;;;;31.47;24.27;101836.41;5078659;28;45654;-70
2022/07/13 08:09:00;;;;;;;;;5.33;4.67;;;;;31.65;24.36;101839.66;5080135;27;45940;-69
2022/07/13 08:11:26;;;;;;;;;2.67;2.67;;;;;31.84;24.42;101832.69;5079754;27;45364;-70
2022/07/13 08:13:52;;;;;;;;;3.33;3.33;;;;;31.96;23.62;101832.19;5080046;27;45658;-70
2022/07/13 08:16:17;;;;;;;;;3.00;3.00;;;;;32.15;23.84;101830.69;5079702;27;45378;-70
2022/07/13 08:18:44;;;;;;;;;7.33;6.00;;;;;32.37;22.73;101833.47;5080027;28;45350;-69
2022/07/13 08:21:09;;;;;;;;;7.33;6.00;;;;;32.81;23.02;101835.16;5079803;27;45349;-69
2022/07/13 08:23:53;;;;;;;;;5.33;5.00;;;;;33.63;22.38;101833.53;5079812;27;45413;-71
2022/07/13 08:26:19;;;;;;;;;2.00;2.00;;;;;34.81;21.54;101828.72;5078530;28;45419;-71
2022/07/13 08:28:45;;;;;;;;;3.67;3.67;;;;;35.91;20.63;101825.22;5079892;27;45426;-72
2022/07/13 08:31:11;;;;;;;;;4.00;4.00;;;;;36.97;19.97;101830.16;5079324;27;46301;-72
2022/07/13 08:39:05;;;;;;;;;4.00;4.00;;;;;39.30;17.91;101835.31;5079982;28;45276;-74
2022/07/13 08:41:32;;;;;;;;;2.00;2.00;;;;;39.87;17.16;101828.13;5077453;28;69834;-73
2022/07/13 08:43:58;;;;;;;;;7.00;4.33;;;;;40.53;16.51;101822.06;5079475;27;45386;-74
2022/07/13 08:46:23;;;;;;;;;3.67;3.67;;;;;41.16;16.03;101822.72;5079334;27;45441;-74
2022/07/13 08:48:50;;;;;;;;;5.00;4.00;;;;;41.77;15.76;101816.22;5078222;28;45409;-74
2022/07/13 08:51:20;;;;;;;;;1.67;1.67;;;;;42.35;15.72;101817.63;5079198;27;46126;-74
2022/07/13 08:53:45;;;;;;;;;5.33;2.67;;;;;42.89;15.44;101823.03;5079381;27;45483;-74
2022/07/13 08:56:11;;;;;;;;;4.00;3.00;;;;;43.41;14.75;101814.91;5078507;28;64305;-74
2022/07/13 08:58:37;;;;;;;;;9.00;6.33;;;;;43.95;14.95;101824.88;5079263;28;45511;-74
2022/07/13 09:01:02;;;;;;;;;2.67;2.67;;;;;44.35;12.89;101814.81;5080807;27;47060;-75
2022/07/13 09:03:33;;;;;;;;;5.33;3.00;;;;;44.60;13.47;101815.91;5082794;27;45445;-75
2022/07/13 09:05:59;;;;;;;;;5.00;5.00;;;;;44.96;13.41;101812.22;5081644;28;45417;-74
2022/07/13 09:08:24;;;;;;;;;8.33;7.33;;;;;45.37;13.36;101804.47;5082740;27;45387;-75
2022/07/13 09:10:58;;;;;;;;;4.00;3.00;;;;;45.73;12.33;101811.84;5081961;27;70897;-74
2022/07/13 09:13:47;;;;;;;;;3.00;2.67;;;;;45.87;11.23;101814.84;5082680;27;45359;-74
2022/07/13 09:16:22;;;;;;;;;4.67;4.67;;;;;45.85;10.94;101814.28;5082587;27;45417;-74
2022/07/13 09:18:49;;;;;;;;;2.00;2.00;;;;;45.82;11.58;101807.28;5082520;27;45495;-74
2022/07/13 09:21:15;;;;;;;;;1.33;1.33;;;;;46.05;11.46;101810.50;5082221;27;45468;-74
2022/07/13 09:23:42;;;;;;;;;3.00;3.00;;;;;46.16;11.34;101812.09;5082421;27;45418;-74
2022/07/13 09:26:07;;;;;;;;;3.00;3.00;;;;;46.29;11.27;101805.00;5082415;27;45442;-74
2022/07/13 09:28:43;;;;;;;;;2.67;2.67;;;;;46.28;11.09;101802.47;5081829;27;45303;-75
2022/07/13 09:31:09;;;;;;;;;2.00;2.00;;;;;46.13;11.35;101803.41;5081902;27;47006;-75
2022/07/13 09:33:36;;;;;;;;;4.00;2.67;;;;;46.11;11.43;101798.09;5080896;28;45421;-75
2022/07/13 09:36:28;;;;;;;;;3.00;3.00;;;;;46.53;10.86;101801.38;5082388;27;45461;-75
2022/07/13 09:38:53;;;;;;;;;1.00;1.00;;;;;46.73;10.89;101803.16;5080197;27;69063;-75
2022/07/13 09:41:21;;;;;;;;;2.00;2.00;;;;;47.02;10.60;101799.44;5081371;27;63641;-75
2022/07/13 09:47:00;;;;;;;;;2.00;2.00;;;;;47.49;10.40;101811.78;5082153;28;45426;-74
2022/07/13 09:49:43;;;;;;;;;1.00;1.00;;;;;47.83;9.34;101804.25;5081069;28;45399;-74
2022/07/13 09:52:19;;;;;;;;;1.67;1.00;;;;;48.07;8.64;101806.09;5081991;27;45555;-74
2022/07/13 09:54:51;;;;;;;;;2.33;2.33;;;;;48.28;9.69;101815.91;5081892;27;45358;-75
2022/07/13 09:57:19;;;;;;;;;2.00;2.00;;;;;48.57;8.28;101800.72;5081929;27;45196;-74
2022/07/13 09:59:44;;;;;;;;;2.00;2.00;;;;;48.50;8.90;101808.72;5080437;28;45292;-73
2022/07/13 10:02:11;;;;;;;;;3.00;3.00;;;;;48.64;8.89;101798.31;5081744;27;46264;-74
2022/07/13 10:04:38;;;;;;;;;1.00;1.00;;;;;48.92;8.65;101803.16;5081838;27;45327;-74
2022/07/13 10:07:04;;;;;;;;;1.33;1.33;;;;;49.16;9.23;101800.91;5080084;28;45460;-76
2022/07/13 10:09:30;;;;;;;;;0.00;0.00;;;;;49.45;8.15;101799.72;5081897;27;45389;-76
2022/07/13 10:11:56;;;;;;;;;3.67;2.00;;;;;49.53;8.61;101800.94;5080158;27;47135;-74
2022/07/13 10:14:23;;;;;;;;;2.67;2.00;;;;;49.37;8.67;101803.31;5081536;27;45342;-74
2022/07/13 10:16:49;;;;;;;;;4.00;1.00;;;;;49.41;8.60;101795.88;5080470;28;45568;-74
2022/07/13 10:19:15;;;;;;;;;0.00;0.00;;;;;49.66;8.93;101799.25;5081668;27;45165;-75
2022/07/13 10:22:01;;;;;;;;;1.67;1.67;;;;;49.98;7.96;101803.00;5079965;28;46066;-75
2022/07/13 10:24:28;;;;;;;;;2.00;2.00;;;;;49.96;8.40;101796.81;5081702;27;45251;-74
2022/07/13 10:27:25;;;;;;;;;2.67;1.67;;;;;49.41;8.20;101795.03;5081915;27;45543;-74
2022/07/13 10:29:55;;;;;;;;;3.00;2.00;;;;;49.36;9.28;101798.00;5081334;27;45386;-73
2022/07/13 10:32:22;;;;;;;;;1.00;1.00;;;;;49.64;7.76;101793.13;5080087;28;45504;-74
2022/07/13 10:34:58;;;;;;;;;1.00;1.00;;;;;49.34;9.17;101787.03;5081226;27;45350;-75
2022/07/13 10:37:25;;;;;;;;;2.00;2.00;;;;;49.38;9.34;101790.03;5081300;27;45385;-75
2022/07/13 10:40:08;;;;;;;;;2.00;2.00;;;;;49.65;8.38;101784.31;5081339;27;45413;-76
2022/07/13 10:43:04;;;;;;;;;2.00;2.00;;;;;49.85;9.15;101781.28;5081127;28;46318;-75
2022/07/13 10:45:42;;;;;;;;;2.00;1.67;;;;;49.96;8.70;101785.50;5080869;27;45689;-76
2022/07/13 10:48:16;;;;;;;;;2.00;1.00;;;;;50.23;8.53;101780.88;5081378;27;45442;-75
2022/07/13 10:50:57;;;;;;;;;1.00;1.00;;;;;50.30;8.68;101786.91;5079864;28;45211;-76
2022/07/13 10:53:37;;;;;;;;;1.00;1.00;;;;;50.75;8.68;101785.97;5080890;27;46175;-75
2022/07/13 10:56:02;;;;;;;;;1.67;1.67;;;;;50.93;7.93;101789.69;5068083;28;45330;-74
2022/07/13 10:58:31;;;;;;;;;4.33;4.33;;;;;51.06;8.38;101788.75;5081039;28;45365;-75
2022/07/13 11:00:57;;;;;;;;;1.33;1.33;;;;;51.22;7.99;101782.59;5080962;27;45362;-76
2022/07/13 11:03:43;;;;;;;;;2.00;2.00;;;;;51.17;7.34;101794.09;5080940;27;45414;-75
2022/07/13 11:06:13;;;;;;;;;2.00;2.00;;;;;51.03;7.68;101782.88;5080741;27;45393;-75
2022/07/13 11:08:39;;;;;;;;;2.00;2.00;;;;;51.20;8.07;101782.09;5081037;27;45416;-76
2022/07/13 11:11:15;;;;;;;;;2.00;2.00;;;;;51.41;7.45;101779.44;5081177;28;45275;-74
2022/07/13 11:13:44;;;;;;;;;1.00;1.00;;;;;51.36;7.33;101776.75;5080739;27;47033;-75
2022/07/13 11:16:10;;;;;;;;;1.00;1.00;;;;;51.25;8.26;101779.09;5080668;27;45346;-75
2022/07/13 11:18:37;;;;;;;;;2.00;2.00;;;;;51.15;7.68;101770.91;5080924;28;45389;-74
2022/07/13 11:21:12;;;;;;;;;0.00;0.00;;;;;51.33;8.03;101774.59;5080984;27;45524;-75
2022/07/13 11:26:52;;;;;;;;;4.00;3.00;;;;;51.66;7.75;101774.94;5079435;28;45386;-75
2022/07/13 11:29:21;;;;;;;;;1.33;1.33;;;;;51.38;7.86;101772.41;5079345;28;45492;-74
2022/07/13 11:31:54;;;;;;;;;3.00;3.00;;;;;51.40;7.56;101770.13;5067341;28;45453;-75
2022/07/13 11:34:19;;;;;;;;;2.00;2.00;;;;;51.58;8.13;101772.94;5080310;27;45637;-75
2022/07/13 11:36:45;;;;;;;;;2.00;2.00;;;;;51.60;8.10;101757.28;5079819;27;60834;-75